sensor_id;sensor_type;location;lat;lon;timestamp;pressure;altitude;pressure_sealevel;temperature;humidity
20955;BME280;10636;19.390;-99.256;2024-02-23T00:00:32;77784.22;;;25.78;19.99
20955;BME280;10636;19.390;-99.256;2024-02-23T00:03:03;77779.56;;;25.78;20.32
20955;BME280;10636;19.390;-99.256;2024-02-23T00:05:32;77782.84;;;25.77;20.31
20955;BME280;10636;19.390;-99.256;2024-02-23T00:08:00;77786.91;;;25.78;20.40
20955;BME280;10636;19.390;-99.256;2024-02-23T00:10:29;77789.00;;;25.79;20.58
20955;BME280;10636;19.390;-99.256;2024-02-23T00:12:59;77794.38;;;25.79;20.72
20955;BME280;10636;19.390;-99.256;2024-02-23T00:15:28;77788.22;;;25.77;20.57
20955;BME280;10636;19.390;-99.256;2024-02-23T00:17:56;77793.03;;;25.80;20.47
20955;BME280;10636;19.390;-99.256;2024-02-23T00:20:25;77797.72;;;25.80;20.72
20955;BME280;10636;19.390;-99.256;2024-02-23T00:22:53;77795.03;;;25.80;20.47
20955;BME280;10636;19.390;-99.256;2024-02-23T00:25:22;77813.16;;;25.79;20.63
20955;BME280;10636;19.390;-99.256;2024-02-23T00:27:50;77815.84;;;25.79;20.41
20955;BME280;10636;19.390;-99.256;2024-02-23T00:30:21;77811.72;;;25.76;19.87
20955;BME280;10636;19.390;-99.256;2024-02-23T00:32:49;77817.78;;;25.77;20.04
20955;BME280;10636;19.390;-99.256;2024-02-23T00:35:18;77817.09;;;25.76;20.04
20955;BME280;10636;19.390;-99.256;2024-02-23T00:37:47;77825.84;;;25.77;19.67
20955;BME280;10636;19.390;-99.256;2024-02-23T00:40:16;77823.09;;;25.75;19.62
20955;BME280;10636;19.390;-99.256;2024-02-23T00:42:44;77819.09;;;25.76;19.79
20955;BME280;10636;19.390;-99.256;2024-02-23T00:45:13;77826.38;;;25.73;19.63
20955;BME280;10636;19.390;-99.256;2024-02-23T00:47:43;77828.47;;;25.75;19.73
20955;BME280;10636;19.390;-99.256;2024-02-23T00:50:13;77837.13;;;25.73;19.42
20955;BME280;10636;19.390;-99.256;2024-02-23T00:52:42;77834.50;;;25.75;19.48
20955;BME280;10636;19.390;-99.256;2024-02-23T00:55:11;77841.88;;;25.75;19.63
20955;BME280;10636;19.390;-99.256;2024-02-23T00:57:42;77837.81;;;25.74;19.49
20955;BME280;10636;19.390;-99.256;2024-02-23T01:02:46;77843.72;;;25.70;19.51
20955;BME280;10636;19.390;-99.256;2024-02-23T01:05:15;77835.88;;;25.56;19.41
20955;BME280;10636;19.390;-99.256;2024-02-23T01:07:44;77848.94;;;25.66;19.10
20955;BME280;10636;19.390;-99.256;2024-02-23T01:10:12;77865.22;;;25.70;19.29
20955;BME280;10636;19.390;-99.256;2024-02-23T01:12:41;77857.09;;;25.68;19.13
20955;BME280;10636;19.390;-99.256;2024-02-23T01:15:10;77863.69;;;25.65;19.25
20955;BME280;10636;19.390;-99.256;2024-02-23T01:17:38;77859.69;;;25.66;18.86
20955;BME280;10636;19.390;-99.256;2024-02-23T01:20:09;77865.75;;;25.67;19.19
20955;BME280;10636;19.390;-99.256;2024-02-23T01:22:38;77870.44;;;25.66;19.18
20955;BME280;10636;19.390;-99.256;2024-02-23T01:25:07;77873.13;;;25.66;19.03
20955;BME280;10636;19.390;-99.256;2024-02-23T01:27:36;77878.44;;;25.64;19.24
20955;BME280;10636;19.390;-99.256;2024-02-23T01:30:07;77877.06;;;25.63;18.96
20955;BME280;10636;19.390;-99.256;2024-02-23T01:32:37;77883.72;;;25.62;18.98
20955;BME280;10636;19.390;-99.256;2024-02-23T01:35:08;77883.66;;;25.60;18.75
20955;BME280;10636;19.390;-99.256;2024-02-23T01:37:37;77887.03;;;25.61;18.31
20955;BME280;10636;19.390;-99.256;2024-02-23T01:40:06;77894.41;;;25.60;18.46
20955;BME280;10636;19.390;-99.256;2024-02-23T01:42:35;77888.97;;;25.58;18.44
20955;BME280;10636;19.390;-99.256;2024-02-23T01:45:04;77892.94;;;25.57;18.26
20955;BME280;10636;19.390;-99.256;2024-02-23T01:47:36;77902.94;;;25.54;17.88
20955;BME280;10636;19.390;-99.256;2024-02-23T01:50:05;77903.56;;;25.53;18.00
20955;BME280;10636;19.390;-99.256;2024-02-23T01:52:37;77907.53;;;25.52;18.42
20955;BME280;10636;19.390;-99.256;2024-02-23T01:55:07;77910.16;;;25.50;18.31
20955;BME280;10636;19.390;-99.256;2024-02-23T01:57:35;77919.53;;;25.49;18.58
20955;BME280;10636;19.390;-99.256;2024-02-23T02:00:05;77920.16;;;25.47;17.62
20955;BME280;10636;19.390;-99.256;2024-02-23T02:02:34;77919.47;;;25.47;17.95
20955;BME280;10636;19.390;-99.256;2024-02-23T02:05:03;77918.00;;;25.44;17.65
20955;BME280;10636;19.390;-99.256;2024-02-23T02:07:33;77931.44;;;25.44;17.52
20955;BME280;10636;19.390;-99.256;2024-02-23T02:10:04;77927.97;;;25.41;17.90
20955;BME280;10636;19.390;-99.256;2024-02-23T02:12:35;77940.13;;;25.42;17.75
20955;BME280;10636;19.390;-99.256;2024-02-23T02:15:05;77940.66;;;25.39;17.76
20955;BME280;10636;19.390;-99.256;2024-02-23T02:17:36;77941.97;;;25.38;17.54
20955;BME280;10636;19.390;-99.256;2024-02-23T02:20:05;77941.81;;;25.34;17.50
20955;BME280;10636;19.390;-99.256;2024-02-23T02:22:38;77947.88;;;25.34;17.26
20955;BME280;10636;19.390;-99.256;2024-02-23T02:25:08;77949.78;;;25.32;17.13
20955;BME280;10636;19.390;-99.256;2024-02-23T02:27:37;77959.91;;;25.33;17.16
20955;BME280;10636;19.390;-99.256;2024-02-23T02:30:07;77956.44;;;25.30;17.07
20955;BME280;10636;19.390;-99.256;2024-02-23T02:32:36;77954.38;;;25.29;16.79
20955;BME280;10636;19.390;-99.256;2024-02-23T02:35:05;77956.22;;;25.24;16.65
20955;BME280;10636;19.390;-99.256;2024-02-23T02:37:34;77966.91;;;25.22;17.20
20955;BME280;10636;19.390;-99.256;2024-02-23T02:40:03;77971.59;;;25.22;17.06
20955;BME280;10636;19.390;-99.256;2024-02-23T02:42:34;77972.19;;;25.20;17.60
20955;BME280;10636;19.390;-99.256;2024-02-23T02:45:03;77978.84;;;25.19;17.21
20955;BME280;10636;19.390;-99.256;2024-02-23T02:47:32;77984.84;;;25.18;17.48
20955;BME280;10636;19.390;-99.256;2024-02-23T02:50:02;77984.78;;;25.16;17.68
20955;BME280;10636;19.390;-99.256;2024-02-23T02:52:43;77989.47;;;25.15;17.55
20955;BME280;10636;19.390;-99.256;2024-02-23T02:55:21;77989.38;;;25.13;17.52
20955;BME280;10636;19.390;-99.256;2024-02-23T02:57:52;77987.84;;;25.08;17.72
20955;BME280;10636;19.390;-99.256;2024-02-23T03:00:21;77984.84;;;25.00;18.05
20955;BME280;10636;19.390;-99.256;2024-02-23T03:02:50;77995.81;;;25.06;18.00
20955;BME280;10636;19.390;-99.256;2024-02-23T03:05:24;78006.38;;;25.02;18.13
20955;BME280;10636;19.390;-99.256;2024-02-23T03:07:52;78001.53;;;24.98;18.05
20955;BME280;10636;19.390;-99.256;2024-02-23T03:10:23;78000.09;;;24.95;17.92
20955;BME280;10636;19.390;-99.256;2024-02-23T03:12:53;78008.72;;;24.94;18.76
20955;BME280;10636;19.390;-99.256;2024-02-23T03:15:22;78007.19;;;24.89;18.55
20955;BME280;10636;19.390;-99.256;2024-02-23T03:17:51;78008.44;;;24.86;18.38
20955;BME280;10636;19.390;-99.256;2024-02-23T03:20:21;78011.03;;;24.84;19.04
20955;BME280;10636;19.390;-99.256;2024-02-23T03:22:50;78016.25;;;24.80;18.61
20955;BME280;10636;19.390;-99.256;2024-02-23T03:25:19;78014.16;;;24.78;19.06
20955;BME280;10636;19.390;-99.256;2024-02-23T03:27:52;78013.41;;;24.75;19.18
20955;BME280;10636;19.390;-99.256;2024-02-23T03:30:21;78028.72;;;24.73;18.66
20955;BME280;10636;19.390;-99.256;2024-02-23T03:32:50;78031.94;;;24.69;19.30
20955;BME280;10636;19.390;-99.256;2024-02-23T03:35:19;78031.94;;;24.69;19.59
20955;BME280;10636;19.390;-99.256;2024-02-23T03:37:57;78032.00;;;24.71;19.34
20955;BME280;10636;19.390;-99.256;2024-02-23T03:40:26;78047.06;;;24.78;19.85
20955;BME280;10636;19.390;-99.256;2024-02-23T03:42:58;78026.66;;;24.71;19.73
20955;BME280;10636;19.390;-99.256;2024-02-23T03:45:30;78038.41;;;24.80;20.06
20955;BME280;10636;19.390;-99.256;2024-02-23T03:48:00;78047.81;;;24.81;19.90
20955;BME280;10636;19.390;-99.256;2024-02-23T03:50:29;78040.47;;;24.82;19.62
20955;BME280;10636;19.390;-99.256;2024-02-23T03:52:58;78041.75;;;24.81;19.80
20955;BME280;10636;19.390;-99.256;2024-02-23T03:55:30;78039.09;;;24.81;20.62
20955;BME280;10636;19.390;-99.256;2024-02-23T03:58:00;78044.44;;;24.81;19.75
20955;BME280;10636;19.390;-99.256;2024-02-23T04:00:31;78046.50;;;24.82;20.66
20955;BME280;10636;19.390;-99.256;2024-02-23T04:03:02;78039.16;;;24.83;20.83
20955;BME280;10636;19.390;-99.256;2024-02-23T04:05:35;78047.88;;;24.83;20.49
20955;BME280;10636;19.390;-99.256;2024-02-23T04:08:06;78032.94;;;24.78;20.41
20955;BME280;10636;19.390;-99.256;2024-02-23T04:10:34;78044.63;;;24.85;20.93
20955;BME280;10636;19.390;-99.256;2024-02-23T04:13:05;78046.00;;;24.86;21.11
20955;BME280;10636;19.390;-99.256;2024-02-23T04:15:34;78046.69;;;24.86;20.67
20955;BME280;10636;19.390;-99.256;2024-02-23T04:18:05;78054.03;;;24.86;21.06
20955;BME280;10636;19.390;-99.256;2024-02-23T04:20:34;78054.72;;;24.86;21.01
20955;BME280;10636;19.390;-99.256;2024-02-23T04:23:03;78047.97;;;24.85;20.44
20955;BME280;10636;19.390;-99.256;2024-02-23T04:25:32;78039.84;;;24.83;20.73
20955;BME280;10636;19.390;-99.256;2024-02-23T04:28:00;78056.72;;;24.86;20.89
20955;BME280;10636;19.390;-99.256;2024-02-23T04:30:31;78040.47;;;24.82;21.28
20955;BME280;10636;19.390;-99.256;2024-02-23T04:33:00;78048.66;;;24.86;21.37
20955;BME280;10636;19.390;-99.256;2024-02-23T04:35:28;78044.00;;;24.86;20.83
20955;BME280;10636;19.390;-99.256;2024-02-23T04:37:57;78046.00;;;24.86;21.09
20955;BME280;10636;19.390;-99.256;2024-02-23T04:40:26;78039.25;;;24.85;20.54
20955;BME280;10636;19.390;-99.256;2024-02-23T04:42:54;78035.78;;;24.82;21.19
20955;BME280;10636;19.390;-99.256;2024-02-23T04:45:23;78043.31;;;24.86;21.14
20955;BME280;10636;19.390;-99.256;2024-02-23T04:47:53;78049.97;;;24.85;21.04
20955;BME280;10636;19.390;-99.256;2024-02-23T04:50:21;78042.53;;;24.83;21.27
20955;BME280;10636;19.390;-99.256;2024-02-23T04:52:50;78053.97;;;24.84;20.75
20955;BME280;10636;19.390;-99.256;2024-02-23T04:55:18;78048.50;;;24.82;20.74
20955;BME280;10636;19.390;-99.256;2024-02-23T04:57:47;78051.88;;;24.82;21.07
20955;BME280;10636;19.390;-99.256;2024-02-23T05:00:16;78045.06;;;24.79;21.04
20955;BME280;10636;19.390;-99.256;2024-02-23T05:02:45;78047.19;;;24.83;21.46
20955;BME280;10636;19.390;-99.256;2024-02-23T05:05:17;78047.19;;;24.83;21.20
20955;BME280;10636;19.390;-99.256;2024-02-23T05:07:50;78044.44;;;24.81;21.12
20955;BME280;10636;19.390;-99.256;2024-02-23T05:10:18;78037.72;;;24.80;21.40
20955;BME280;10636;19.390;-99.256;2024-02-23T05:12:50;78034.84;;;24.75;20.96
20955;BME280;10636;19.390;-99.256;2024-02-23T05:15:22;78044.91;;;24.75;20.87
20955;BME280;10636;19.390;-99.256;2024-02-23T05:17:50;78046.28;;;24.76;21.17
20955;BME280;10636;19.390;-99.256;2024-02-23T05:20:21;78048.34;;;24.77;21.59
20955;BME280;10636;19.390;-99.256;2024-02-23T05:22:49;78043.59;;;24.76;20.93
20955;BME280;10636;19.390;-99.256;2024-02-23T05:25:18;78034.84;;;24.75;21.65
20955;BME280;10636;19.390;-99.256;2024-02-23T05:27:46;78042.75;;;24.71;21.21
20955;BME280;10636;19.390;-99.256;2024-02-23T05:30:15;78037.53;;;24.75;21.21
20955;BME280;10636;19.390;-99.256;2024-02-23T05:32:44;78030.63;;;24.70;21.01
20955;BME280;10636;19.390;-99.256;2024-02-23T05:35:13;78034.69;;;24.71;21.14
20955;BME280;10636;19.390;-99.256;2024-02-23T05:37:44;78022.66;;;24.72;21.45
20955;BME280;10636;19.390;-99.256;2024-02-23T05:40:16;78025.19;;;24.68;21.56
20955;BME280;10636;19.390;-99.256;2024-02-23T05:42:47;78024.59;;;24.70;21.26
20955;BME280;10636;19.390;-99.256;2024-02-23T05:45:23;78021.22;;;24.69;21.20
20955;BME280;10636;19.390;-99.256;2024-02-23T05:47:55;78021.13;;;24.67;21.37
20955;BME280;10636;19.390;-99.256;2024-02-23T05:50:27;78024.41;;;24.66;21.56
20955;BME280;10636;19.390;-99.256;2024-02-23T05:53:11;78013.63;;;24.64;21.71
20955;BME280;10636;19.390;-99.256;2024-02-23T05:55:51;78014.16;;;24.60;21.85
20955;BME280;10636;19.390;-99.256;2024-02-23T05:58:25;77994.81;;;24.46;21.54
20955;BME280;10636;19.390;-99.256;2024-02-23T06:00:54;78018.28;;;24.63;21.49
20955;BME280;10636;19.390;-99.256;2024-02-23T06:03:22;78014.22;;;24.62;21.40
20955;BME280;10636;19.390;-99.256;2024-02-23T06:05:51;78014.16;;;24.60;21.96
20955;BME280;10636;19.390;-99.256;2024-02-23T06:08:22;78007.16;;;24.53;21.28
20955;BME280;10636;19.390;-99.256;2024-02-23T06:10:50;78012.78;;;24.59;21.76
20955;BME280;10636;19.390;-99.256;2024-02-23T06:13:19;78004.72;;;24.59;21.98
20955;BME280;10636;19.390;-99.256;2024-02-23T06:15:47;77999.25;;;24.57;21.78
20955;BME280;10636;19.390;-99.256;2024-02-23T06:18:16;77997.31;;;24.58;21.51
20955;BME280;10636;19.390;-99.256;2024-02-23T06:20:44;77999.19;;;24.55;21.68
20955;BME280;10636;19.390;-99.256;2024-02-23T06:23:13;78001.25;;;24.57;21.54
20955;BME280;10636;19.390;-99.256;2024-02-23T06:25:43;78001.94;;;24.57;21.40
20955;BME280;10636;19.390;-99.256;2024-02-23T06:28:11;77994.53;;;24.56;21.47
20955;BME280;10636;19.390;-99.256;2024-02-23T06:30:40;77984.19;;;24.48;21.35
20955;BME280;10636;19.390;-99.256;2024-02-23T06:33:08;77989.00;;;24.51;21.83
20955;BME280;10636;19.390;-99.256;2024-02-23T06:35:37;77995.75;;;24.52;21.21
20955;BME280;10636;19.390;-99.256;2024-02-23T06:38:06;77997.13;;;24.54;21.12
20955;BME280;10636;19.390;-99.256;2024-02-23T06:40:34;78006.47;;;24.52;21.40
20955;BME280;10636;19.390;-99.256;2024-02-23T06:43:04;77997.41;;;24.44;21.43
20955;BME280;10636;19.390;-99.256;2024-02-23T06:45:33;77999.03;;;24.51;21.48
20955;BME280;10636;19.390;-99.256;2024-02-23T06:48:01;78000.16;;;24.46;21.62
20955;BME280;10636;19.390;-99.256;2024-02-23T06:50:30;78000.16;;;24.46;21.40
20955;BME280;10636;19.390;-99.256;2024-02-23T06:52:58;78000.25;;;24.48;21.94
20955;BME280;10636;19.390;-99.256;2024-02-23T06:55:27;78002.84;;;24.46;21.31
20955;BME280;10636;19.390;-99.256;2024-02-23T06:57:56;77999.47;;;24.45;21.52
20955;BME280;10636;19.390;-99.256;2024-02-23T07:00:26;77996.81;;;24.45;22.03
20955;BME280;10636;19.390;-99.256;2024-02-23T07:02:54;78000.78;;;24.44;22.00
20955;BME280;10636;19.390;-99.256;2024-02-23T07:05:25;78001.47;;;24.45;21.76
20955;BME280;10636;19.390;-99.256;2024-02-23T07:07:53;77997.41;;;24.44;21.49
20955;BME280;10636;19.390;-99.256;2024-02-23T07:10:22;77990.75;;;24.45;21.71
20955;BME280;10636;19.390;-99.256;2024-02-23T07:12:51;77985.91;;;24.41;21.26
20955;BME280;10636;19.390;-99.256;2024-02-23T07:15:20;77993.38;;;24.43;21.84
20955;BME280;10636;19.390;-99.256;2024-02-23T07:17:50;77998.72;;;24.43;22.01
20955;BME280;10636;19.390;-99.256;2024-02-23T07:20:19;77981.59;;;24.34;21.66
20955;BME280;10636;19.390;-99.256;2024-02-23T07:22:47;77991.88;;;24.40;21.57
20955;BME280;10636;19.390;-99.256;2024-02-23T07:25:17;77998.56;;;24.39;21.83
20955;BME280;10636;19.390;-99.256;2024-02-23T07:27:46;77994.41;;;24.36;21.77
20955;BME280;10636;19.390;-99.256;2024-02-23T07:30:16;77993.81;;;24.37;21.88
20955;BME280;10636;19.390;-99.256;2024-02-23T07:32:45;77988.34;;;24.35;21.65
20955;BME280;10636;19.390;-99.256;2024-02-23T07:35:16;77987.63;;;24.35;21.48
20955;BME280;10636;19.390;-99.256;2024-02-23T07:37:49;77988.94;;;24.34;22.27
20955;BME280;10636;19.390;-99.256;2024-02-23T07:40:18;77987.63;;;24.35;21.96
20955;BME280;10636;19.390;-99.256;2024-02-23T07:42:46;77982.22;;;24.33;21.41
20955;BME280;10636;19.390;-99.256;2024-02-23T07:45:15;77986.25;;;24.34;22.05
20955;BME280;10636;19.390;-99.256;2024-02-23T07:47:43;77992.94;;;24.33;22.05
20955;BME280;10636;19.390;-99.256;2024-02-23T07:50:12;77975.47;;;24.32;22.33
20955;BME280;10636;19.390;-99.256;2024-02-23T07:52:43;77987.47;;;24.31;22.17
20955;BME280;10636;19.390;-99.256;2024-02-23T07:55:11;77988.72;;;24.27;22.13
20955;BME280;10636;19.390;-99.256;2024-02-23T07:57:39;77981.34;;;24.28;21.68
20955;BME280;10636;19.390;-99.256;2024-02-23T08:00:08;77979.34;;;24.29;21.48
20955;BME280;10636;19.390;-99.256;2024-02-23T08:02:38;77977.97;;;24.27;21.52
20955;BME280;10636;19.390;-99.256;2024-02-23T08:05:07;77983.88;;;24.24;21.48
20955;BME280;10636;19.390;-99.256;2024-02-23T08:07:36;77981.19;;;24.24;22.25
20955;BME280;10636;19.390;-99.256;2024-02-23T08:10:07;77984.56;;;24.24;22.27
20955;BME280;10636;19.390;-99.256;2024-02-23T08:12:35;77979.13;;;24.22;21.59
20955;BME280;10636;19.390;-99.256;2024-02-23T08:15:05;77981.81;;;24.22;22.02
20955;BME280;10636;19.390;-99.256;2024-02-23T08:17:33;77984.41;;;24.20;22.31
20955;BME280;10636;19.390;-99.256;2024-02-23T08:20:02;77984.25;;;24.16;21.58
20955;BME280;10636;19.390;-99.256;2024-02-23T08:22:32;77982.88;;;24.15;22.10
20955;BME280;10636;19.390;-99.256;2024-02-23T08:25:00;77986.81;;;24.14;22.31
20955;BME280;10636;19.390;-99.256;2024-02-23T08:27:30;77977.41;;;24.13;22.30
20955;BME280;10636;19.390;-99.256;2024-02-23T08:29:59;77983.91;;;24.08;21.69
20955;BME280;10636;19.390;-99.256;2024-02-23T08:32:27;77981.31;;;24.10;22.24
20955;BME280;10636;19.390;-99.256;2024-02-23T08:34:56;77978.53;;;24.08;22.36
20955;BME280;10636;19.390;-99.256;2024-02-23T08:37:25;77971.81;;;24.07;22.11
20955;BME280;10636;19.390;-99.256;2024-02-23T08:39:54;77985.88;;;24.08;22.06
20955;BME280;10636;19.390;-99.256;2024-02-23T08:42:22;77966.09;;;23.99;21.91
20955;BME280;10636;19.390;-99.256;2024-02-23T08:44:53;77975.78;;;24.06;21.73
20955;BME280;10636;19.390;-99.256;2024-02-23T08:47:22;77971.75;;;24.05;22.17
20955;BME280;10636;19.390;-99.256;2024-02-23T08:49:51;77969.56;;;24.02;22.24
20955;BME280;10636;19.390;-99.256;2024-02-23T08:52:19;77968.28;;;24.03;21.82
20955;BME280;10636;19.390;-99.256;2024-02-23T08:54:48;77967.50;;;24.00;22.02
20955;BME280;10636;19.390;-99.256;2024-02-23T08:57:16;77963.44;;;23.99;22.53
20955;BME280;10636;19.390;-99.256;2024-02-23T08:59:46;77971.47;;;23.99;21.77
20955;BME280;10636;19.390;-99.256;2024-02-23T09:02:16;77976.75;;;23.97;22.06
20955;BME280;10636;19.390;-99.256;2024-02-23T09:04:48;77970.03;;;23.96;22.36
20955;BME280;10636;19.390;-99.256;2024-02-23T09:07:16;77963.19;;;23.93;22.30
20955;BME280;10636;19.390;-99.256;2024-02-23T09:09:46;77971.91;;;23.93;22.57
20955;BME280;10636;19.390;-99.256;2024-02-23T09:12:15;77965.78;;;23.91;22.60
20955;BME280;10636;19.390;-99.256;2024-02-23T09:14:43;77946.56;;;23.79;22.51
20955;BME280;10636;19.390;-99.256;2024-02-23T09:17:12;77967.84;;;23.92;22.88
20955;BME280;10636;19.390;-99.256;2024-02-23T09:19:42;77960.44;;;23.91;22.72
20955;BME280;10636;19.390;-99.256;2024-02-23T09:22:10;77956.38;;;23.90;22.87
20955;BME280;10636;19.390;-99.256;2024-02-23T09:24:40;77957.69;;;23.89;22.78
20955;BME280;10636;19.390;-99.256;2024-02-23T09:27:08;77955.59;;;23.87;22.29
20955;BME280;10636;19.390;-99.256;2024-02-23T09:29:37;77955.59;;;23.87;22.03
20955;BME280;10636;19.390;-99.256;2024-02-23T09:32:06;77952.84;;;23.85;22.47
20955;BME280;10636;19.390;-99.256;2024-02-23T09:34:35;77954.06;;;23.82;22.31
20955;BME280;10636;19.390;-99.256;2024-02-23T09:37:05;77950.06;;;23.83;22.19
20955;BME280;10636;19.390;-99.256;2024-02-23T09:39:33;77954.66;;;23.81;22.06
20955;BME280;10636;19.390;-99.256;2024-02-23T09:42:02;77948.00;;;23.82;22.26
20955;BME280;10636;19.390;-99.256;2024-02-23T09:44:33;77953.28;;;23.80;22.75
20955;BME280;10636;19.390;-99.256;2024-02-23T09:47:02;77943.94;;;23.81;23.08
20955;BME280;10636;19.390;-99.256;2024-02-23T09:49:35;77951.22;;;23.78;22.29
20955;BME280;10636;19.390;-99.256;2024-02-23T09:52:08;77951.81;;;23.77;22.45
20955;BME280;10636;19.390;-99.256;2024-02-23T09:54:37;77953.72;;;23.74;22.69
20955;BME280;10636;19.390;-99.256;2024-02-23T09:57:08;77953.13;;;23.76;22.98
20955;BME280;10636;19.390;-99.256;2024-02-23T09:59:36;77949.75;;;23.75;22.19
20955;BME280;10636;19.390;-99.256;2024-02-23T10:02:07;77954.41;;;23.74;22.75
20955;BME280;10636;19.390;-99.256;2024-02-23T10:04:39;77945.09;;;23.76;22.92
20955;BME280;10636;19.390;-99.256;2024-02-23T10:07:09;77941.72;;;23.75;23.22
20955;BME280;10636;19.390;-99.256;2024-02-23T10:09:37;77945.09;;;23.76;23.07
20955;BME280;10636;19.390;-99.256;2024-02-23T10:12:07;77943.72;;;23.74;22.22
20955;BME280;10636;19.390;-99.256;2024-02-23T10:14:36;77943.03;;;23.74;23.09
20955;BME280;10636;19.390;-99.256;2024-02-23T10:17:06;77940.84;;;23.70;22.49
20955;BME280;10636;19.390;-99.256;2024-02-23T10:19:35;77942.16;;;23.69;22.75
20955;BME280;10636;19.390;-99.256;2024-02-23T10:22:04;77938.19;;;23.70;22.73
20955;BME280;10636;19.390;-99.256;2024-02-23T10:24:34;77946.13;;;23.68;23.10
20955;BME280;10636;19.390;-99.256;2024-02-23T10:27:04;77951.50;;;23.68;23.17
20955;BME280;10636;19.390;-99.256;2024-02-23T10:29:33;77940.59;;;23.64;23.19
20955;BME280;10636;19.390;-99.256;2024-02-23T10:32:01;77946.66;;;23.65;22.87
20955;BME280;10636;19.390;-99.256;2024-02-23T10:34:31;77951.31;;;23.64;23.06
20955;BME280;10636;19.390;-99.256;2024-02-23T10:37:04;77951.31;;;23.64;22.56
20955;BME280;10636;19.390;-99.256;2024-02-23T10:39:37;77952.63;;;23.63;23.12
20955;BME280;10636;19.390;-99.256;2024-02-23T10:42:09;77952.63;;;23.63;23.29
20955;BME280;10636;19.390;-99.256;2024-02-23T10:44:39;77947.13;;;23.61;22.64
20955;BME280;10636;19.390;-99.256;2024-02-23T10:47:08;77942.31;;;23.58;23.12
20955;BME280;10636;19.390;-99.256;2024-02-23T10:49:38;77941.53;;;23.55;22.51
20955;BME280;10636;19.390;-99.256;2024-02-23T10:52:15;77951.13;;;23.60;23.00
20955;BME280;10636;19.390;-99.256;2024-02-23T10:54:48;77948.38;;;23.58;22.43
20955;BME280;10636;19.390;-99.256;2024-02-23T10:57:18;77946.28;;;23.57;22.43
20955;BME280;10636;19.390;-99.256;2024-02-23T10:59:47;77945.59;;;23.56;22.87
20955;BME280;10636;19.390;-99.256;2024-02-23T11:02:19;77946.88;;;23.55;22.88
20955;BME280;10636;19.390;-99.256;2024-02-23T11:04:49;77946.88;;;23.55;22.55
20955;BME280;10636;19.390;-99.256;2024-02-23T11:07:19;77941.47;;;23.53;22.64
20955;BME280;10636;19.390;-99.256;2024-02-23T11:09:52;77942.16;;;23.54;22.57
20955;BME280;10636;19.390;-99.256;2024-02-23T11:12:24;77948.13;;;23.52;22.97
20955;BME280;10636;19.390;-99.256;2024-02-23T11:14:57;77953.47;;;23.52;22.52
20955;BME280;10636;19.390;-99.256;2024-02-23T11:17:30;77954.06;;;23.51;22.80
20955;BME280;10636;19.390;-99.256;2024-02-23T11:20:02;77945.16;;;23.46;22.55
20955;BME280;10636;19.390;-99.256;2024-02-23T11:22:31;77946.38;;;23.43;22.83
20955;BME280;10636;19.390;-99.256;2024-02-23T11:25:03;77947.75;;;23.44;23.17
20955;BME280;10636;19.390;-99.256;2024-02-23T11:27:33;77950.44;;;23.44;23.04
20955;BME280;10636;19.390;-99.256;2024-02-23T11:30:03;77951.63;;;23.41;22.85
20955;BME280;10636;19.390;-99.256;2024-02-23T11:32:39;77934.47;;;23.30;23.30
20955;BME280;10636;19.390;-99.256;2024-02-23T11:35:09;77952.25;;;23.39;22.80
20955;BME280;10636;19.390;-99.256;2024-02-23T11:37:46;77952.88;;;23.38;23.30
20955;BME280;10636;19.390;-99.256;2024-02-23T11:40:18;77946.13;;;23.37;22.55
20955;BME280;10636;19.390;-99.256;2024-02-23T11:42:46;77945.09;;;23.28;22.56
20955;BME280;10636;19.390;-99.256;2024-02-23T11:45:16;77950.09;;;23.36;22.81
20955;BME280;10636;19.390;-99.256;2024-02-23T11:47:44;77952.75;;;23.36;23.18
20955;BME280;10636;19.390;-99.256;2024-02-23T11:50:14;77950.09;;;23.36;23.24
20955;BME280;10636;19.390;-99.256;2024-02-23T11:52:46;77960.09;;;23.35;23.24
20955;BME280;10636;19.390;-99.256;2024-02-23T11:55:20;77966.75;;;23.34;22.89
20955;BME280;10636;19.390;-99.256;2024-02-23T11:57:49;77973.41;;;23.33;22.60
20955;BME280;10636;19.390;-99.256;2024-02-23T12:00:18;77976.69;;;23.32;23.58
20955;BME280;10636;19.390;-99.256;2024-02-23T12:02:47;77975.31;;;23.31;22.86
20955;BME280;10636;19.390;-99.256;2024-02-23T12:05:16;77978.06;;;23.33;23.27
20955;BME280;10636;19.390;-99.256;2024-02-23T12:07:45;77978.75;;;23.33;23.13
20955;BME280;10636;19.390;-99.256;2024-02-23T12:10:13;77973.66;;;23.23;23.09
20955;BME280;10636;19.390;-99.256;2024-02-23T12:12:44;77982.06;;;23.32;23.75
20955;BME280;10636;19.390;-99.256;2024-02-23T12:15:13;77967.00;;;23.25;23.74
20955;BME280;10636;19.390;-99.256;2024-02-23T12:17:50;77977.72;;;23.25;24.43
20955;BME280;10636;19.390;-99.256;2024-02-23T12:20:22;77984.63;;;23.30;24.30
20955;BME280;10636;19.390;-99.256;2024-02-23T12:22:50;77983.84;;;23.27;24.42
20955;BME280;10636;19.390;-99.256;2024-02-23T12:25:22;77989.28;;;23.29;24.33
20955;BME280;10636;19.390;-99.256;2024-02-23T12:27:56;77983.94;;;23.29;24.60
20955;BME280;10636;19.390;-99.256;2024-02-23T12:30:25;77990.66;;;23.30;24.29
20955;BME280;10636;19.390;-99.256;2024-02-23T12:33:04;77993.44;;;23.32;24.16
20955;BME280;10636;19.390;-99.256;2024-02-23T12:35:34;77992.75;;;23.32;24.54
20955;BME280;10636;19.390;-99.256;2024-02-23T12:38:03;78001.91;;;23.27;25.16
20955;BME280;10636;19.390;-99.256;2024-02-23T12:40:31;77999.13;;;23.25;25.16
20955;BME280;10636;19.390;-99.256;2024-02-23T12:43:04;78005.69;;;23.21;25.07
20955;BME280;10636;19.390;-99.256;2024-02-23T12:45:33;78005.00;;;23.21;24.11
20955;BME280;10636;19.390;-99.256;2024-02-23T12:48:02;78008.94;;;23.20;24.03
20955;BME280;10636;19.390;-99.256;2024-02-23T12:50:33;78014.91;;;23.18;24.20
20955;BME280;10636;19.390;-99.256;2024-02-23T12:53:01;78009.47;;;23.16;24.71
20955;BME280;10636;19.390;-99.256;2024-02-23T12:55:30;78014.16;;;23.16;24.70